sensor_id;sensor_type;location;lat;lon;timestamp;P1;durP1;ratioP1;P2;durP2;ratioP2
14019;SDS011;7085;51.428;6.796;2023-04-08T03:01:57;16.98;;;12.93;;
14019;SDS011;7085;51.428;6.796;2023-04-08T03:04:24;17.48;;;12.38;;
14019;SDS011;7085;51.428;6.796;2023-04-08T03:06:51;15.27;;;12.65;;
14019;SDS011;7085;51.428;6.796;2023-04-08T03:09:18;15.48;;;12.50;;
14019;SDS011;7085;51.428;6.796;2023-04-08T03:11:45;14.38;;;11.43;;
14019;SDS011;7085;51.428;6.796;2023-04-08T03:14:17;17.30;;;12.40;;
14019;SDS011;7085;51.428;6.796;2023-04-08T03:16:44;16.50;;;12.93;;
14019;SDS011;7085;51.428;6.796;2023-04-08T03:19:12;17.58;;;12.07;;
14019;SDS011;7085;51.428;6.796;2023-04-08T03:21:40;15.50;;;12.32;;
14019;SDS011;7085;51.428;6.796;2023-04-08T03:24:07;15.73;;;11.27;;
14019;SDS011;7085;51.428;6.796;2023-04-08T03:26:34;17.30;;;12.88;;
14019;SDS011;7085;51.428;6.796;2023-04-08T03:29:01;14.90;;;12.57;;
14019;SDS011;7085;51.428;6.796;2023-04-08T03:31:28;16.55;;;12.80;;
14019;SDS011;7085;51.428;6.796;2023-04-08T03:33:56;16.53;;;12.70;;
14019;SDS011;7085;51.428;6.796;2023-04-08T03:36:24;17.00;;;12.43;;
14019;SDS011;7085;51.428;6.796;2023-04-08T03:38:55;14.90;;;12.10;;
14019;SDS011;7085;51.428;6.796;2023-04-08T03:41:22;16.50;;;13.00;;
14019;SDS011;7085;51.428;6.796;2023-04-08T03:43:49;15.80;;;13.20;;
14019;SDS011;7085;51.428;6.796;2023-04-08T03:46:16;18.50;;;13.30;;
14019;SDS011;7085;51.428;6.796;2023-04-08T03:48:43;16.47;;;12.70;;
14019;SDS011;7085;51.428;6.796;2023-04-08T03:51:10;16.80;;;13.90;;
14019;SDS011;7085;51.428;6.796;2023-04-08T03:53:38;18.23;;;13.50;;
14019;SDS011;7085;51.428;6.796;2023-04-08T03:56:05;19.73;;;13.93;;
14019;SDS011;7085;51.428;6.796;2023-04-08T03:58:32;17.67;;;13.47;;
14019;SDS011;7085;51.428;6.796;2023-04-08T04:01:00;17.17;;;13.07;;
14019;SDS011;7085;51.428;6.796;2023-04-08T04:03:27;16.03;;;12.00;;
14019;SDS011;7085;51.428;6.796;2023-04-08T04:05:54;18.07;;;14.50;;
14019;SDS011;7085;51.428;6.796;2023-04-08T04:08:21;21.07;;;15.60;;
14019;SDS011;7085;51.428;6.796;2023-04-08T04:10:49;20.43;;;13.70;;
14019;SDS011;7085;51.428;6.796;2023-04-08T04:13:16;20.20;;;14.67;;
14019;SDS011;7085;51.428;6.796;2023-04-08T04:15:44;32.83;;;15.87;;
14019;SDS011;7085;51.428;6.796;2023-04-08T04:18:11;28.00;;;16.40;;
14019;SDS011;7085;51.428;6.796;2023-04-08T04:20:39;23.70;;;15.60;;
14019;SDS011;7085;51.428;6.796;2023-04-08T04:23:06;34.43;;;16.97;;
14019;SDS011;7085;51.428;6.796;2023-04-08T04:25:33;24.10;;;15.40;;
14019;SDS011;7085;51.428;6.796;2023-04-08T04:28:01;39.87;;;16.60;;
14019;SDS011;7085;51.428;6.796;2023-04-08T04:30:28;34.67;;;15.10;;
14019;SDS011;7085;51.428;6.796;2023-04-08T04:32:55;56.47;;;17.10;;
14019;SDS011;7085;51.428;6.796;2023-04-08T04:35:23;41.07;;;16.67;;
14019;SDS011;7085;51.428;6.796;2023-04-08T04:37:50;21.77;;;15.80;;
14019;SDS011;7085;51.428;6.796;2023-04-08T04:40:17;36.57;;;15.00;;
14019;SDS011;7085;51.428;6.796;2023-04-08T04:42:44;35.73;;;15.93;;
14019;SDS011;7085;51.428;6.796;2023-04-08T04:45:13;29.87;;;14.20;;
14019;SDS011;7085;51.428;6.796;2023-04-08T04:47:40;24.40;;;15.33;;
14019;SDS011;7085;51.428;6.796;2023-04-08T04:50:07;39.03;;;14.60;;
14019;SDS011;7085;51.428;6.796;2023-04-08T04:52:35;29.17;;;13.53;;
14019;SDS011;7085;51.428;6.796;2023-04-08T04:55:02;37.97;;;15.80;;
14019;SDS011;7085;51.428;6.796;2023-04-08T04:57:29;50.13;;;16.67;;
14019;SDS011;7085;51.428;6.796;2023-04-08T04:59:56;57.17;;;15.40;;
14019;SDS011;7085;51.428;6.796;2023-04-08T05:02:25;23.67;;;14.77;;
14019;SDS011;7085;51.428;6.796;2023-04-08T05:04:52;33.57;;;15.77;;
14019;SDS011;7085;51.428;6.796;2023-04-08T05:07:19;58.53;;;14.87;;
14019;SDS011;7085;51.428;6.796;2023-04-08T05:09:46;65.15;;;15.55;;
14019;SDS011;7085;51.428;6.796;2023-04-08T05:12:13;53.77;;;14.83;;
14019;SDS011;7085;51.428;6.796;2023-04-08T05:14:41;50.20;;;14.20;;
14019;SDS011;7085;51.428;6.796;2023-04-08T05:17:08;31.30;;;12.97;;
14019;SDS011;7085;51.428;6.796;2023-04-08T05:19:36;22.83;;;13.45;;
14019;SDS011;7085;51.428;6.796;2023-04-08T05:22:03;47.20;;;13.80;;
14019;SDS011;7085;51.428;6.796;2023-04-08T05:24:31;37.17;;;13.53;;
14019;SDS011;7085;51.428;6.796;2023-04-08T05:26:58;23.40;;;13.13;;
14019;SDS011;7085;51.428;6.796;2023-04-08T05:29:25;24.43;;;13.10;;
14019;SDS011;7085;51.428;6.796;2023-04-08T05:31:52;33.03;;;14.27;;
14019;SDS011;7085;51.428;6.796;2023-04-08T05:34:20;27.63;;;14.20;;
14019;SDS011;7085;51.428;6.796;2023-04-08T05:36:49;22.77;;;13.77;;
14019;SDS011;7085;51.428;6.796;2023-04-08T05:39:16;68.95;;;14.38;;
14019;SDS011;7085;51.428;6.796;2023-04-08T05:41:43;56.67;;;14.18;;
14019;SDS011;7085;51.428;6.796;2023-04-08T05:44:10;44.30;;;13.83;;
14019;SDS011;7085;51.428;6.796;2023-04-08T05:46:38;37.38;;;14.23;;
14019;SDS011;7085;51.428;6.796;2023-04-08T05:49:05;96.82;;;15.40;;
14019;SDS011;7085;51.428;6.796;2023-04-08T05:51:32;45.00;;;13.80;;
14019;SDS011;7085;51.428;6.796;2023-04-08T05:54:00;31.45;;;14.52;;
14019;SDS011;7085;51.428;6.796;2023-04-08T05:56:27;24.83;;;14.17;;
14019;SDS011;7085;51.428;6.796;2023-04-08T05:58:56;27.80;;;13.98;;
14019;SDS011;7085;51.428;6.796;2023-04-08T06:01:23;26.35;;;13.93;;
14019;SDS011;7085;51.428;6.796;2023-04-08T06:03:50;43.22;;;14.77;;
14019;SDS011;7085;51.428;6.796;2023-04-08T06:06:19;38.00;;;15.23;;
14019;SDS011;7085;51.428;6.796;2023-04-08T06:08:47;31.45;;;14.65;;
14019;SDS011;7085;51.428;6.796;2023-04-08T06:11:15;25.05;;;13.93;;
14019;SDS011;7085;51.428;6.796;2023-04-08T06:13:42;83.60;;;21.25;;
14019;SDS011;7085;51.428;6.796;2023-04-08T06:16:09;90.15;;;25.98;;
14019;SDS011;7085;51.428;6.796;2023-04-08T06:18:36;110.05;;;28.98;;
14019;SDS011;7085;51.428;6.796;2023-04-08T06:21:03;114.28;;;29.98;;
14019;SDS011;7085;51.428;6.796;2023-04-08T06:23:31;76.67;;;27.97;;
14019;SDS011;7085;51.428;6.796;2023-04-08T06:25:58;140.82;;;35.92;;
14019;SDS011;7085;51.428;6.796;2023-04-08T06:28:26;112.53;;;29.88;;
14019;SDS011;7085;51.428;6.796;2023-04-08T06:30:54;121.60;;;29.38;;
14019;SDS011;7085;51.428;6.796;2023-04-08T06:33:21;85.45;;;26.25;;
14019;SDS011;7085;51.428;6.796;2023-04-08T06:35:48;122.28;;;29.77;;
14019;SDS011;7085;51.428;6.796;2023-04-08T06:38:16;81.57;;;27.87;;
14019;SDS011;7085;51.428;6.796;2023-04-08T06:40:43;76.10;;;28.35;;
14019;SDS011;7085;51.428;6.796;2023-04-08T06:43:10;82.75;;;26.95;;
14019;SDS011;7085;51.428;6.796;2023-04-08T06:45:38;78.90;;;25.58;;
14019;SDS011;7085;51.428;6.796;2023-04-08T06:48:06;67.43;;;26.25;;
14019;SDS011;7085;51.428;6.796;2023-04-08T06:50:34;72.85;;;24.48;;
14019;SDS011;7085;51.428;6.796;2023-04-08T06:53:01;67.32;;;24.52;;
14019;SDS011;7085;51.428;6.796;2023-04-08T06:55:28;60.00;;;24.77;;
14019;SDS011;7085;51.428;6.796;2023-04-08T06:57:55;79.72;;;26.95;;
14019;SDS011;7085;51.428;6.796;2023-04-08T07:00:22;64.47;;;26.60;;
14019;SDS011;7085;51.428;6.796;2023-04-08T07:02:50;71.60;;;26.45;;
14019;SDS011;7085;51.428;6.796;2023-04-08T07:05:17;68.70;;;26.80;;
14019;SDS011;7085;51.428;6.796;2023-04-08T07:07:45;77.22;;;28.90;;
14019;SDS011;7085;51.428;6.796;2023-04-08T07:10:12;91.78;;;30.08;;
14019;SDS011;7085;51.428;6.796;2023-04-08T07:12:39;80.38;;;28.45;;
14019;SDS011;7085;51.428;6.796;2023-04-08T07:15:07;84.40;;;30.58;;
14019;SDS011;7085;51.428;6.796;2023-04-08T07:17:34;88.00;;;30.00;;
14019;SDS011;7085;51.428;6.796;2023-04-08T07:20:03;89.35;;;30.58;;
14019;SDS011;7085;51.428;6.796;2023-04-08T07:22:30;74.95;;;25.83;;
14019;SDS011;7085;51.428;6.796;2023-04-08T07:24:57;71.95;;;27.98;;
14019;SDS011;7085;51.428;6.796;2023-04-08T07:27:24;61.08;;;24.38;;
14019;SDS011;7085;51.428;6.796;2023-04-08T07:29:51;66.47;;;25.80;;
14019;SDS011;7085;51.428;6.796;2023-04-08T07:32:19;80.80;;;26.50;;
14019;SDS011;7085;51.428;6.796;2023-04-08T07:34:46;67.63;;;26.52;;
14019;SDS011;7085;51.428;6.796;2023-04-08T07:37:14;77.75;;;25.85;;
14019;SDS011;7085;51.428;6.796;2023-04-08T07:39:42;63.63;;;24.98;;
14019;SDS011;7085;51.428;6.796;2023-04-08T07:42:09;55.20;;;25.58;;
14019;SDS011;7085;51.428;6.796;2023-04-08T07:44:36;64.65;;;24.90;;
14019;SDS011;7085;51.428;6.796;2023-04-08T07:47:03;63.90;;;21.55;;
14019;SDS011;7085;51.428;6.796;2023-04-08T07:49:30;48.78;;;22.02;;
14019;SDS011;7085;51.428;6.796;2023-04-08T07:51:57;59.10;;;25.20;;
14019;SDS011;7085;51.428;6.796;2023-04-08T07:54:26;64.07;;;26.23;;
14019;SDS011;7085;51.428;6.796;2023-04-08T07:56:53;51.00;;;27.20;;
14019;SDS011;7085;51.428;6.796;2023-04-08T07:59:21;59.53;;;25.45;;
14019;SDS011;7085;51.428;6.796;2023-04-08T08:01:48;73.17;;;27.07;;
14019;SDS011;7085;51.428;6.796;2023-04-08T08:04:15;74.47;;;28.38;;
14019;SDS011;7085;51.428;6.796;2023-04-08T08:06:42;60.35;;;26.63;;
14019;SDS011;7085;51.428;6.796;2023-04-08T08:09:09;69.43;;;28.23;;
14019;SDS011;7085;51.428;6.796;2023-04-08T08:11:38;74.00;;;28.65;;
14019;SDS011;7085;51.428;6.796;2023-04-08T08:14:05;65.20;;;28.77;;
14019;SDS011;7085;51.428;6.796;2023-04-08T08:16:32;85.32;;;29.70;;
14019;SDS011;7085;51.428;6.796;2023-04-08T08:19:00;105.82;;;30.27;;
14019;SDS011;7085;51.428;6.796;2023-04-08T08:21:28;106.50;;;33.63;;
14019;SDS011;7085;51.428;6.796;2023-04-08T08:23:55;105.18;;;33.90;;
14019;SDS011;7085;51.428;6.796;2023-04-08T08:26:23;104.43;;;36.97;;
14019;SDS011;7085;51.428;6.796;2023-04-08T08:28:52;97.47;;;35.47;;
14019;SDS011;7085;51.428;6.796;2023-04-08T08:31:19;90.03;;;33.50;;
14019;SDS011;7085;51.428;6.796;2023-04-08T08:33:46;98.03;;;35.70;;
14019;SDS011;7085;51.428;6.796;2023-04-08T08:36:13;98.72;;;37.50;;
14019;SDS011;7085;51.428;6.796;2023-04-08T08:38:40;86.53;;;35.25;;
14019;SDS011;7085;51.428;6.796;2023-04-08T08:41:07;75.43;;;31.15;;
14019;SDS011;7085;51.428;6.796;2023-04-08T08:43:34;74.82;;;31.23;;
14019;SDS011;7085;51.428;6.796;2023-04-08T08:46:04;69.65;;;32.97;;
14019;SDS011;7085;51.428;6.796;2023-04-08T08:48:31;65.95;;;29.33;;
14019;SDS011;7085;51.428;6.796;2023-04-08T08:51:00;54.97;;;29.00;;
14019;SDS011;7085;51.428;6.796;2023-04-08T08:53:28;51.78;;;26.58;;
14019;SDS011;7085;51.428;6.796;2023-04-08T08:55:55;52.75;;;25.67;;
14019;SDS011;7085;51.428;6.796;2023-04-08T08:58:24;46.45;;;25.05;;
14019;SDS011;7085;51.428;6.796;2023-04-08T09:00:51;46.03;;;25.05;;
14019;SDS011;7085;51.428;6.796;2023-04-08T09:03:20;49.13;;;25.50;;
14019;SDS011;7085;51.428;6.796;2023-04-08T09:05:48;44.92;;;24.60;;
14019;SDS011;7085;51.428;6.796;2023-04-08T09:08:22;38.60;;;21.98;;
14019;SDS011;7085;51.428;6.796;2023-04-08T09:10:50;48.63;;;26.30;;
14019;SDS011;7085;51.428;6.796;2023-04-08T09:13:17;41.13;;;23.75;;
14019;SDS011;7085;51.428;6.796;2023-04-08T09:16:00;34.60;;;21.73;;
14019;SDS011;7085;51.428;6.796;2023-04-08T09:18:29;39.72;;;23.35;;
14019;SDS011;7085;51.428;6.796;2023-04-08T09:20:58;38.85;;;22.42;;
14019;SDS011;7085;51.428;6.796;2023-04-08T09:23:36;32.50;;;20.77;;
14019;SDS011;7085;51.428;6.796;2023-04-08T09:26:06;26.95;;;18.17;;
14019;SDS011;7085;51.428;6.796;2023-04-08T09:28:33;22.10;;;15.80;;
14019;SDS011;7085;51.428;6.796;2023-04-08T09:31:00;20.50;;;15.75;;
14019;SDS011;7085;51.428;6.796;2023-04-08T09:33:31;21.50;;;16.15;;
14019;SDS011;7085;51.428;6.796;2023-04-08T09:35:59;26.00;;;17.15;;
14019;SDS011;7085;51.428;6.796;2023-04-08T09:38:26;22.08;;;16.80;;
14019;SDS011;7085;51.428;6.796;2023-04-08T09:40:53;23.92;;;17.58;;
14019;SDS011;7085;51.428;6.796;2023-04-08T09:43:20;26.13;;;19.85;;
14019;SDS011;7085;51.428;6.796;2023-04-08T09:45:48;29.17;;;18.67;;
14019;SDS011;7085;51.428;6.796;2023-04-08T09:48:16;25.25;;;17.13;;
14019;SDS011;7085;51.428;6.796;2023-04-08T09:50:46;28.73;;;16.55;;
14019;SDS011;7085;51.428;6.796;2023-04-08T09:53:16;25.05;;;15.98;;
14019;SDS011;7085;51.428;6.796;2023-04-08T09:55:47;25.83;;;14.15;;
14019;SDS011;7085;51.428;6.796;2023-04-08T09:58:17;21.33;;;16.05;;
14019;SDS011;7085;51.428;6.796;2023-04-08T10:00:48;26.67;;;15.07;;
14019;SDS011;7085;51.428;6.796;2023-04-08T10:03:19;17.35;;;14.75;;
14019;SDS011;7085;51.428;6.796;2023-04-08T10:05:51;20.30;;;12.70;;
14019;SDS011;7085;51.428;6.796;2023-04-08T10:08:20;17.27;;;12.07;;
14019;SDS011;7085;51.428;6.796;2023-04-08T10:10:47;15.75;;;12.70;;
14019;SDS011;7085;51.428;6.796;2023-04-08T10:13:15;17.52;;;11.63;;
14019;SDS011;7085;51.428;6.796;2023-04-08T10:15:42;16.35;;;11.40;;
14019;SDS011;7085;51.428;6.796;2023-04-08T10:18:29;11.93;;;10.07;;
14019;SDS011;7085;51.428;6.796;2023-04-08T10:20:59;12.38;;;7.85;;
14019;SDS011;7085;51.428;6.796;2023-04-08T10:26:28;10.13;;;8.32;;
14019;SDS011;7085;51.428;6.796;2023-04-08T10:28:55;11.23;;;9.90;;
14019;SDS011;7085;51.428;6.796;2023-04-08T10:31:42;10.02;;;8.23;;
14019;SDS011;7085;51.428;6.796;2023-04-08T10:34:16;11.10;;;8.45;;
14019;SDS011;7085;51.428;6.796;2023-04-08T10:36:46;10.75;;;8.13;;
14019;SDS011;7085;51.428;6.796;2023-04-08T10:39:14;8.98;;;7.40;;
14019;SDS011;7085;51.428;6.796;2023-04-08T10:41:44;8.50;;;7.60;;
14019;SDS011;7085;51.428;6.796;2023-04-08T10:44:14;8.75;;;6.63;;
14019;SDS011;7085;51.428;6.796;2023-04-08T10:46:43;8.13;;;6.43;;
14019;SDS011;7085;51.428;6.796;2023-04-08T10:49:10;7.53;;;6.43;;
14019;SDS011;7085;51.428;6.796;2023-04-08T10:51:37;7.43;;;5.80;;
14019;SDS011;7085;51.428;6.796;2023-04-08T10:54:07;7.82;;;6.50;;
14019;SDS011;7085;51.428;6.796;2023-04-08T10:56:34;10.13;;;6.40;;
14019;SDS011;7085;51.428;6.796;2023-04-08T10:59:02;8.25;;;5.95;;
14019;SDS011;7085;51.428;6.796;2023-04-08T11:01:36;6.85;;;6.15;;
14019;SDS011;7085;51.428;6.796;2023-04-08T11:04:06;7.53;;;6.10;;
14019;SDS011;7085;51.428;6.796;2023-04-08T11:06:35;7.00;;;5.93;;
14019;SDS011;7085;51.428;6.796;2023-04-08T11:09:02;7.10;;;5.90;;
14019;SDS011;7085;51.428;6.796;2023-04-08T11:11:31;6.25;;;5.65;;
14019;SDS011;7085;51.428;6.796;2023-04-08T11:14:00;9.25;;;6.40;;
14019;SDS011;7085;51.428;6.796;2023-04-08T11:16:27;9.65;;;6.18;;
14019;SDS011;7085;51.428;6.796;2023-04-08T11:18:54;9.50;;;6.80;;
14019;SDS011;7085;51.428;6.796;2023-04-08T11:21:22;7.03;;;6.20;;
14019;SDS011;7085;51.428;6.796;2023-04-08T11:23:53;9.63;;;5.90;;
14019;SDS011;7085;51.428;6.796;2023-04-08T11:26:20;7.45;;;5.93;;
14019;SDS011;7085;51.428;6.796;2023-04-08T11:28:49;6.63;;;5.65;;
14019;SDS011;7085;51.428;6.796;2023-04-08T11:31:16;6.90;;;5.50;;
14019;SDS011;7085;51.428;6.796;2023-04-08T11:33:44;6.85;;;5.93;;
14019;SDS011;7085;51.428;6.796;2023-04-08T11:36:12;9.30;;;5.95;;
14019;SDS011;7085;51.428;6.796;2023-04-08T11:38:39;6.40;;;5.72;;
14019;SDS011;7085;51.428;6.796;2023-04-08T11:41:07;6.82;;;5.63;;
14019;SDS011;7085;51.428;6.796;2023-04-08T11:43:34;7.97;;;6.30;;
14019;SDS011;7085;51.428;6.796;2023-04-08T11:46:08;8.23;;;5.70;;
14019;SDS011;7085;51.428;6.796;2023-04-08T11:48:36;7.93;;;6.95;;
14019;SDS011;7085;51.428;6.796;2023-04-08T11:51:04;7.70;;;5.53;;
14019;SDS011;7085;51.428;6.796;2023-04-08T11:53:33;6.85;;;5.97;;
14019;SDS011;7085;51.428;6.796;2023-04-08T11:56:17;8.85;;;5.88;;
14019;SDS011;7085;51.428;6.796;2023-04-08T11:58:44;8.45;;;5.32;;
14019;SDS011;7085;51.428;6.796;2023-04-08T12:01:13;7.95;;;5.80;;
14019;SDS011;7085;51.428;6.796;2023-04-08T12:03:52;6.80;;;5.82;;
14019;SDS011;7085;51.428;6.796;2023-04-08T12:06:19;6.43;;;5.60;;
14019;SDS011;7085;51.428;6.796;2023-04-08T12:08:47;7.32;;;5.85;;
14019;SDS011;7085;51.428;6.796;2023-04-08T12:11:14;6.90;;;4.97;;
14019;SDS011;7085;51.428;6.796;2023-04-08T12:13:41;5.95;;;5.40;;
14019;SDS011;7085;51.428;6.796;2023-04-08T12:16:08;6.95;;;4.72;;
14019;SDS011;7085;51.428;6.796;2023-04-08T12:18:37;8.27;;;5.63;;
14019;SDS011;7085;51.428;6.796;2023-04-08T12:21:04;7.90;;;6.05;;
14019;SDS011;7085;51.428;6.796;2023-04-08T12:23:31;6.45;;;5.63;;
14019;SDS011;7085;51.428;6.796;2023-04-08T12:25:58;6.13;;;5.53;;
14019;SDS011;7085;51.428;6.796;2023-04-08T12:28:26;6.05;;;5.45;;
14019;SDS011;7085;51.428;6.796;2023-04-08T12:30:53;7.88;;;6.18;;
14019;SDS011;7085;51.428;6.796;2023-04-08T12:33:20;7.35;;;5.65;;
14019;SDS011;7085;51.428;6.796;2023-04-08T12:35:48;7.53;;;5.88;;
14019;SDS011;7085;51.428;6.796;2023-04-08T12:38:16;7.28;;;5.68;;
14019;SDS011;7085;51.428;6.796;2023-04-08T12:40:43;5.97;;;5.20;;
14019;SDS011;7085;51.428;6.796;2023-04-08T12:43:10;5.13;;;4.60;;
14019;SDS011;7085;51.428;6.796;2023-04-08T12:45:37;5.75;;;5.03;;
14019;SDS011;7085;51.428;6.796;2023-04-08T12:48:04;5.65;;;4.40;;
14019;SDS011;7085;51.428;6.796;2023-04-08T12:50:31;5.15;;;4.25;;
14019;SDS011;7085;51.428;6.796;2023-04-08T12:53:00;6.93;;;3.95;;
14019;SDS011;7085;51.428;6.796;2023-04-08T12:55:27;4.13;;;3.72;;
14019;SDS011;7085;51.428;6.796;2023-04-08T12:57:54;4.32;;;3.45;;
14019;SDS011;7085;51.428;6.796;2023-04-08T13:00:21;4.45;;;3.72;;
14019;SDS011;7085;51.428;6.796;2023-04-08T13:02:48;6.60;;;4.60;;
14019;SDS011;7085;51.428;6.796;2023-04-08T13:05:16;4.97;;;4.47;;
14019;SDS011;7085;51.428;6.796;2023-04-08T13:07:43;4.75;;;4.05;;
14019;SDS011;7085;51.428;6.796;2023-04-08T13:10:12;5.22;;;4.20;;
14019;SDS011;7085;51.428;6.796;2023-04-08T13:12:40;4.13;;;3.72;;
14019;SDS011;7085;51.428;6.796;2023-04-08T13:15:07;6.18;;;4.25;;
14019;SDS011;7085;51.428;6.796;2023-04-08T13:17:35;5.05;;;4.40;;
14019;SDS011;7085;51.428;6.796;2023-04-08T13:20:02;7.88;;;4.65;;
14019;SDS011;7085;51.428;6.796;2023-04-08T13:22:29;7.47;;;4.90;;
14019;SDS011;7085;51.428;6.796;2023-04-08T13:24:57;6.03;;;5.30;;
14019;SDS011;7085;51.428;6.796;2023-04-08T13:27:27;5.72;;;5.03;;
14019;SDS011;7085;51.428;6.796;2023-04-08T13:29:54;5.65;;;5.10;;
14019;SDS011;7085;51.428;6.796;2023-04-08T13:32:21;5.65;;;5.00;;
14019;SDS011;7085;51.428;6.796;2023-04-08T13:34:48;5.55;;;4.57;;
14019;SDS011;7085;51.428;6.796;2023-04-08T13:37:15;8.10;;;4.97;;
14019;SDS011;7085;51.428;6.796;2023-04-08T13:39:42;7.22;;;5.88;;
14019;SDS011;7085;51.428;6.796;2023-04-08T13:42:09;8.80;;;5.70;;
14019;SDS011;7085;51.428;6.796;2023-04-08T13:44:38;7.50;;;6.00;;
14019;SDS011;7085;51.428;6.796;2023-04-08T13:47:05;11.65;;;6.80;;
14019;SDS011;7085;51.428;6.796;2023-04-08T13:49:32;8.63;;;6.85;;
14019;SDS011;7085;51.428;6.796;2023-04-08T13:51:59;8.80;;;6.85;;
14019;SDS011;7085;51.428;6.796;2023-04-08T13:54:27;7.28;;;6.35;;
14019;SDS011;7085;51.428;6.796;2023-04-08T13:56:54;6.53;;;5.82;;
14019;SDS011;7085;51.428;6.796;2023-04-08T13:59:21;8.07;;;7.25;;
14019;SDS011;7085;51.428;6.796;2023-04-08T14:01:50;11.70;;;8.85;;
14019;SDS011;7085;51.428;6.796;2023-04-08T14:04:18;9.35;;;8.45;;
14019;SDS011;7085;51.428;6.796;2023-04-08T14:06:45;13.60;;;6.85;;
14019;SDS011;7085;51.428;6.796;2023-04-08T14:09:14;19.17;;;8.30;;
14019;SDS011;7085;51.428;6.796;2023-04-08T14:11:41;8.77;;;7.03;;
14019;SDS011;7085;51.428;6.796;2023-04-08T14:14:08;6.93;;;6.30;;
14019;SDS011;7085;51.428;6.796;2023-04-08T14:16:36;12.30;;;7.70;;
14019;SDS011;7085;51.428;6.796;2023-04-08T14:19:04;10.43;;;7.25;;
14019;SDS011;7085;51.428;6.796;2023-04-08T14:21:31;10.35;;;7.22;;
14019;SDS011;7085;51.428;6.796;2023-04-08T14:23:59;15.43;;;8.45;;
14019;SDS011;7085;51.428;6.796;2023-04-08T14:26:26;31.05;;;8.27;;
14019;SDS011;7085;51.428;6.796;2023-04-08T14:28:53;12.98;;;7.07;;
14019;SDS011;7085;51.428;6.796;2023-04-08T14:31:20;23.63;;;7.93;;
14019;SDS011;7085;51.428;6.796;2023-04-08T14:33:48;8.02;;;6.97;;
14019;SDS011;7085;51.428;6.796;2023-04-08T14:36:16;10.15;;;7.53;;
14019;SDS011;7085;51.428;6.796;2023-04-08T14:38:44;10.75;;;8.00;;
14019;SDS011;7085;51.428;6.796;2023-04-08T14:41:11;8.32;;;7.28;;
14019;SDS011;7085;51.428;6.796;2023-04-08T14:43:38;7.65;;;6.22;;
14019;SDS011;7085;51.428;6.796;2023-04-08T14:46:05;8.60;;;7.72;;
14019;SDS011;7085;51.428;6.796;2023-04-08T14:48:32;9.35;;;8.45;;
14019;SDS011;7085;51.428;6.796;2023-04-08T14:50:59;9.25;;;8.32;;
14019;SDS011;7085;51.428;6.796;2023-04-08T14:53:28;7.90;;;7.20;;
14019;SDS011;7085;51.428;6.796;2023-04-08T14:55:55;10.40;;;8.63;;
14019;SDS011;7085;51.428;6.796;2023-04-08T14:58:22;9.18;;;8.23;;
14019;SDS011;7085;51.428;6.796;2023-04-08T15:00:49;9.88;;;8.27;;
14019;SDS011;7085;51.428;6.796;2023-04-08T15:03:16;10.13;;;9.13;;
14019;SDS011;7085;51.428;6.796;2023-04-08T15:05:46;9.23;;;8.02;;
14019;SDS011;7085;51.428;6.796;2023-04-08T15:08:14;11.07;;;8.40;;
14019;SDS011;7085;51.428;6.796;2023-04-08T15:10:42;10.15;;;9.15;;
14019;SDS011;7085;51.428;6.796;2023-04-08T15:13:09;9.68;;;8.68;;
14019;SDS011;7085;51.428;6.796;2023-04-08T15:15:36;10.50;;;9.35;;
14019;SDS011;7085;51.428;6.796;2023-04-08T15:18:03;9.77;;;8.88;;
14019;SDS011;7085;51.428;6.796;2023-04-08T15:20:30;22.75;;;8.77;;
14019;SDS011;7085;51.428;6.796;2023-04-08T15:22:57;10.82;;;8.18;;
14019;SDS011;7085;51.428;6.796;2023-04-08T15:25:24;10.68;;;8.50;;
14019;SDS011;7085;51.428;6.796;2023-04-08T15:27:53;10.70;;;9.60;;
14019;SDS011;7085;51.428;6.796;2023-04-08T15:30:20;9.95;;;8.68;;
14019;SDS011;7085;51.428;6.796;2023-04-08T15:32:49;9.93;;;8.93;;
14019;SDS011;7085;51.428;6.796;2023-04-08T15:35:16;9.43;;;8.50;;
14019;SDS011;7085;51.428;6.796;2023-04-08T15:37:43;10.45;;;9.35;;
14019;SDS011;7085;51.428;6.796;2023-04-08T15:40:10;10.65;;;9.32;;
14019;SDS011;7085;51.428;6.796;2023-04-08T15:42:37;10.60;;;9.57;;
14019;SDS011;7085;51.428;6.796;2023-04-08T15:45:06;15.48;;;9.32;;
14019;SDS011;7085;51.428;6.796;2023-04-08T15:47:33;9.65;;;8.60;;
14019;SDS011;7085;51.428;6.796;2023-04-08T15:50:00;12.77;;;9.93;;
14019;SDS011;7085;51.428;6.796;2023-04-08T15:52:27;9.98;;;8.98;;
14019;SDS011;7085;51.428;6.796;2023-04-08T15:54:54;11.27;;;9.80;;
14019;SDS011;7085;51.428;6.796;2023-04-08T15:57:22;13.07;;;10.13;;
14019;SDS011;7085;51.428;6.796;2023-04-08T15:59:50;11.40;;;9.40;;
14019;SDS011;7085;51.428;6.796;2023-04-08T16:02:19;12.93;;;9.88;;
14019;SDS011;7085;51.428;6.796;2023-04-08T16:04:46;10.90;;;9.13;;
14019;SDS011;7085;51.428;6.796;2023-04-08T16:07:13;11.48;;;9.35;;
14019;SDS011;7085;51.428;6.796;2023-04-08T16:09:40;11.48;;;10.35;;
14019;SDS011;7085;51.428;6.796;2023-04-08T16:12:07;14.65;;;12.48;;
14019;SDS011;7085;51.428;6.796;2023-04-08T16:14:34;14.10;;;12.60;;
14019;SDS011;7085;51.428;6.796;2023-04-08T16:17:02;14.95;;;12.40;;
14019;SDS011;7085;51.428;6.796;2023-04-08T16:19:31;12.38;;;11.00;;
14019;SDS011;7085;51.428;6.796;2023-04-08T16:21:58;15.02;;;11.23;;
14019;SDS011;7085;51.428;6.796;2023-04-08T16:24:25;13.60;;;11.73;;
14019;SDS011;7085;51.428;6.796;2023-04-08T16:26:52;14.15;;;11.45;;
14019;SDS011;7085;51.428;6.796;2023-04-08T16:29:19;13.02;;;11.10;;
14019;SDS011;7085;51.428;6.796;2023-04-08T16:31:47;12.63;;;10.70;;
14019;SDS011;7085;51.428;6.796;2023-04-08T16:34:14;14.85;;;12.32;;
14019;SDS011;7085;51.428;6.796;2023-04-08T16:36:42;15.23;;;11.05;;
14019;SDS011;7085;51.428;6.796;2023-04-08T16:39:09;13.57;;;12.13;;
14019;SDS011;7085;51.428;6.796;2023-04-08T16:41:37;12.35;;;10.63;;
14019;SDS011;7085;51.428;6.796;2023-04-08T16:44:04;14.63;;;11.48;;
14019;SDS011;7085;51.428;6.796;2023-04-08T16:46:31;12.65;;;10.57;;
14019;SDS011;7085;51.428;6.796;2023-04-08T16:48:58;12.48;;;11.18;;
14019;SDS011;7085;51.428;6.796;2023-04-08T16:51:25;13.85;;;11.82;;
14019;SDS011;7085;51.428;6.796;2023-04-08T16:53:54;16.45;;;12.73;;
14019;SDS011;7085;51.428;6.796;2023-04-08T16:56:21;14.60;;;11.93;;
14019;SDS011;7085;51.428;6.796;2023-04-08T16:58:49;17.40;;;13.43;;
14019;SDS011;7085;51.428;6.796;2023-04-08T17:01:16;14.32;;;12.25;;
14019;SDS011;7085;51.428;6.796;2023-04-08T17:03:44;15.20;;;12.48;;
14019;SDS011;7085;51.428;6.796;2023-04-08T17:06:12;14.80;;;11.57;;
14019;SDS011;7085;51.428;6.796;2023-04-08T17:08:39;13.98;;;9.98;;
14019;SDS011;7085;51.428;6.796;2023-04-08T17:11:09;15.93;;;11.57;;
14019;SDS011;7085;51.428;6.796;2023-04-08T17:13:36;28.05;;;11.90;;
14019;SDS011;7085;51.428;6.796;2023-04-08T17:16:03;12.57;;;10.55;;
14019;SDS011;7085;51.428;6.796;2023-04-08T17:18:31;13.93;;;11.05;;
14019;SDS011;7085;51.428;6.796;2023-04-08T17:20:58;12.68;;;9.93;;
14019;SDS011;7085;51.428;6.796;2023-04-08T17:23:25;12.00;;;10.35;;
14019;SDS011;7085;51.428;6.796;2023-04-08T17:25:52;12.73;;;10.48;;
14019;SDS011;7085;51.428;6.796;2023-04-08T17:28:24;11.07;;;9.90;;
14019;SDS011;7085;51.428;6.796;2023-04-08T17:30:51;11.85;;;10.27;;
14019;SDS011;7085;51.428;6.796;2023-04-08T17:33:18;11.35;;;9.75;;
14019;SDS011;7085;51.428;6.796;2023-04-08T17:35:45;11.80;;;9.25;;
14019;SDS011;7085;51.428;6.796;2023-04-08T17:38:12;11.35;;;10.13;;
14019;SDS011;7085;51.428;6.796;2023-04-08T17:40:39;12.98;;;10.57;;
14019;SDS011;7085;51.428;6.796;2023-04-08T17:43:06;13.60;;;10.15;;
14019;SDS011;7085;51.428;6.796;2023-04-08T17:45:35;11.98;;;10.43;;
14019;SDS011;7085;51.428;6.796;2023-04-08T17:48:02;21.48;;;16.35;;
14019;SDS011;7085;51.428;6.796;2023-04-08T17:50:30;13.85;;;11.50;;